createdAt,value
2023-03-01T00:00:31.856Z,552.2
2023-03-01T00:01:34.388Z,552.4
2023-03-01T00:02:37.297Z,552.6
2023-03-01T00:03:40.151Z,552.3
2023-03-01T00:04:42.758Z,552.7
2023-03-01T00:05:44.973Z,552.9
2023-03-01T00:06:47.254Z,552.8
2023-03-01T00:07:49.785Z,553.3
2023-03-01T00:08:52.308Z,553.4
2023-03-01T00:09:54.822Z,554.1
2023-03-01T00:10:57.651Z,554.1
2023-03-01T00:11:59.876Z,553.5
2023-03-01T00:13:02.404Z,553.9
2023-03-01T00:14:04.124Z,553.4
2023-03-01T00:15:06.462Z,553.4
2023-03-01T00:16:08.684Z,553.5
2023-03-01T00:17:11.241Z,553.5
2023-03-01T00:18:13.432Z,553.3
2023-03-01T00:19:15.970Z,554.2
2023-03-01T00:20:18.594Z,553.7
2023-03-01T00:21:21.117Z,554.2
2023-03-01T00:22:23.621Z,553
2023-03-01T00:23:26.111Z,553.7
2023-03-01T00:24:28.617Z,553.5
2023-03-01T00:25:30.815Z,553.9
2023-03-01T00:26:34.475Z,554.3
2023-03-01T00:27:36.689Z,553.8
2023-03-01T00:28:39.244Z,554.2
2023-03-01T00:29:41.735Z,553.7
2023-03-01T00:30:44.562Z,553.7
2023-03-01T00:31:47.221Z,554.1
2023-03-01T00:32:49.740Z,553.7
2023-03-01T00:33:51.951Z,554.4
2023-03-01T00:34:54.437Z,554.4
2023-03-01T00:35:57.346Z,554.8
2023-03-01T00:36:59.863Z,554.5
2023-03-01T00:38:02.400Z,555
2023-03-01T00:39:04.638Z,554.8
2023-03-01T00:40:07.163Z,554.7
2023-03-01T00:41:09.411Z,554.9
2023-03-01T00:42:11.617Z,555
2023-03-01T00:43:13.848Z,554.8
2023-03-01T00:44:16.082Z,555.3
2023-03-01T00:45:18.570Z,555.1
2023-03-01T00:46:21.293Z,555.1
2023-03-01T00:47:23.582Z,555.5
2023-03-01T00:48:26.099Z,555
2023-03-01T00:49:28.344Z,555.5
2023-03-01T00:50:30.839Z,555.5
2023-03-01T00:51:33.509Z,555.5
2023-03-01T00:52:35.728Z,555.5
2023-03-01T00:53:38.300Z,555.7
2023-03-01T00:54:40.514Z,555.9
2023-03-01T00:55:43.039Z,555.6
2023-03-01T00:56:45.250Z,555.9
2023-03-01T00:57:47.456Z,556.1
2023-03-01T00:58:49.409Z,556.3
2023-03-01T00:59:51.634Z,556
2023-03-01T01:00:54.128Z,556.5
2023-03-01T01:01:56.999Z,556.1
2023-03-01T01:02:59.584Z,556.3
2023-03-01T01:04:01.898Z,556.2
2023-03-01T01:05:03.896Z,556.4
2023-03-01T01:06:06.491Z,556.6
2023-03-01T01:07:09.119Z,556.2
2023-03-01T01:08:11.338Z,557.1
2023-03-01T01:09:13.832Z,556.9
2023-03-01T01:10:16.320Z,557
2023-03-01T01:11:18.844Z,557.3
2023-03-01T01:12:21.336Z,556.8
2023-03-01T01:13:23.886Z,557.4
2023-03-01T01:23:08.464Z,558.6
2023-03-01T01:24:11.016Z,558.3
2023-03-01T01:25:13.558Z,558.7
2023-03-01T01:26:15.827Z,558.9
2023-03-01T01:27:18.322Z,559.1
2023-03-01T01:28:20.531Z,559.2
2023-03-01T01:29:22.766Z,558.5
2023-03-01T01:30:25.262Z,558.9
2023-03-01T01:31:28.060Z,559.2
2023-03-01T01:32:30.963Z,558.9
2023-03-01T01:33:32.961Z,559.7
2023-03-01T01:34:35.173Z,559.5
2023-03-01T01:35:36.800Z,560
2023-03-01T01:36:39.301Z,559.3
2023-03-01T01:37:41.799Z,559.4
2023-03-01T01:38:44.399Z,559.9
2023-03-01T01:39:46.654Z,560.2
2023-03-01T01:40:48.868Z,559.9
2023-03-01T01:41:51.129Z,560.4
2023-03-01T01:42:53.392Z,560
2023-03-01T01:43:55.872Z,560.2
2023-03-01T01:44:58.364Z,560.6
2023-03-01T01:46:00.869Z,560.3
2023-03-01T01:47:03.434Z,560.5
2023-03-01T01:48:05.953Z,560.6
2023-03-01T01:49:07.929Z,560.6
2023-03-01T01:50:09.864Z,560.9
2023-03-01T01:51:12.361Z,560.6
2023-03-01T01:52:14.871Z,560.9
2023-03-01T01:53:17.410Z,561.3
2023-03-01T01:54:19.999Z,561.2
2023-03-01T01:55:22.596Z,561.2
2023-03-01T01:56:25.111Z,561.6
2023-03-01T01:57:27.611Z,561.8
2023-03-01T01:58:30.098Z,562.1
2023-03-01T01:59:32.588Z,562.3
2023-03-01T02:00:34.796Z,562.1
2023-03-01T02:01:37.023Z,561.8
2023-03-01T02:02:40.025Z,561.8
2023-03-01T02:03:42.806Z,562.3
2023-03-01T02:04:45.356Z,562.1
2023-03-01T02:06:54.344Z,562.2
2023-03-01T02:07:56.833Z,562
2023-03-01T02:08:59.310Z,562.4
2023-03-01T02:10:01.635Z,562.5
2023-03-01T02:11:04.229Z,562.1
2023-03-01T02:12:06.464Z,562.3
2023-03-01T02:13:08.707Z,562.3
2023-03-01T02:14:10.927Z,562.3
2023-03-01T02:15:13.150Z,562.4
2023-03-01T02:16:15.332Z,562.5
2023-03-01T02:17:17.545Z,562.6
2023-03-01T02:18:20.039Z,562.8
2023-03-01T02:19:22.534Z,562.6
2023-03-01T02:20:24.880Z,563
2023-03-01T02:21:27.361Z,562.6
2023-03-01T02:22:30.279Z,563
2023-03-01T02:23:32.797Z,563.3
2023-03-01T02:24:35.012Z,563.1
2023-03-01T02:25:37.319Z,563.5
2023-03-01T02:26:39.896Z,563.1
2023-03-01T02:27:41.835Z,563.3
2023-03-01T02:28:44.055Z,563.6
2023-03-01T02:29:46.552Z,563.5
2023-03-01T02:30:48.487Z,563.5
2023-03-01T02:31:51.019Z,563.5
2023-03-01T02:32:53.239Z,563.7
2023-03-01T02:33:55.740Z,563.8
2023-03-01T02:34:58.241Z,563.2
2023-03-01T02:36:00.830Z,563.5
2023-03-01T02:37:03.105Z,563.2
2023-03-01T02:38:05.097Z,563.4
2023-03-01T02:39:07.616Z,562.8
2023-03-01T02:40:09.834Z,563.1
2023-03-01T02:41:12.104Z,563.2
2023-03-01T02:42:14.650Z,563.3
2023-03-01T02:43:16.848Z,563.5
2023-03-01T02:44:18.809Z,562.9
2023-03-01T02:45:21.320Z,563.7
2023-03-01T02:46:23.482Z,563.7
2023-03-01T02:47:25.979Z,563.7
2023-03-01T02:48:28.189Z,563.7
2023-03-01T02:49:30.443Z,563.9
2023-03-01T02:50:32.682Z,563.7
2023-03-01T02:51:34.358Z,564
2023-03-01T02:52:36.863Z,564.2
2023-03-01T02:53:39.383Z,564.1
2023-03-01T02:54:41.867Z,563.9
2023-03-01T02:55:44.077Z,564.2
2023-03-01T02:56:46.642Z,563.9
2023-03-01T02:57:49.198Z,564
2023-03-01T02:58:51.120Z,564.1
2023-03-01T02:59:53.627Z,563.9
2023-03-01T03:00:56.464Z,564.1
2023-03-01T03:01:58.724Z,564
2023-03-01T03:03:01.227Z,564.6
2023-03-01T03:04:04.039Z,564.3
2023-03-01T03:05:06.530Z,564.5
2023-03-01T03:06:09.056Z,564.6
2023-03-01T03:07:11.537Z,564.5
2023-03-01T03:08:14.068Z,564.5
2023-03-01T03:09:18.712Z,564.1
2023-03-01T03:10:20.619Z,564.1
2023-03-01T03:11:22.556Z,564
2023-03-01T03:12:24.841Z,564.3
2023-03-01T03:13:27.390Z,564
2023-03-01T03:14:29.876Z,564
2023-03-01T03:15:31.881Z,563.9
2023-03-01T03:16:35.798Z,563.4
2023-03-01T03:17:38.313Z,563.9
2023-03-01T03:18:40.528Z,563.6
2023-03-01T03:19:43.044Z,563.6
2023-03-01T03:20:45.288Z,563.8
2023-03-01T03:21:47.800Z,563.7
2023-03-01T03:22:49.759Z,563.6
2023-03-01T03:23:51.973Z,564
2023-03-01T03:24:54.179Z,563.9
2023-03-01T03:25:56.665Z,564.3
2023-03-01T03:26:59.154Z,564.2
2023-03-01T03:28:01.713Z,564.1
2023-03-01T03:29:04.030Z,563.9
2023-03-01T03:30:06.238Z,564.2
2023-03-01T03:31:08.844Z,564.4
2023-03-01T03:32:11.642Z,564.5
2023-03-01T03:33:15.796Z,564.5
2023-03-01T03:34:18.013Z,564.5
2023-03-01T03:35:19.668Z,564.4
2023-03-01T03:36:21.882Z,564.7
2023-03-01T03:37:24.367Z,564.7
2023-03-01T03:38:26.298Z,564.4
2023-03-01T03:39:28.796Z,564.4
2023-03-01T03:40:31.287Z,564.2
2023-03-01T03:41:32.913Z,564.6
2023-03-01T03:42:35.151Z,565
2023-03-01T03:43:37.473Z,564.8
2023-03-01T03:44:40.026Z,565
2023-03-01T03:45:42.861Z,564.8
2023-03-01T03:46:45.085Z,564.8
2023-03-01T03:47:46.734Z,565.1
2023-03-01T03:48:49.266Z,565.3
2023-03-01T03:49:51.752Z,564.9
2023-03-01T03:50:53.741Z,565.1
2023-03-01T03:51:56.367Z,565
2023-03-01T03:52:58.708Z,565.1
2023-03-01T03:54:01.238Z,565.1
2023-03-01T03:55:03.261Z,565.5
2023-03-01T03:57:10.725Z,565.2
2023-03-01T03:58:13.240Z,565.8
2023-03-01T03:59:16.133Z,565.6
2023-03-01T04:00:18.753Z,565.7
2023-03-01T04:01:21.582Z,565.8
2023-03-01T04:02:24.451Z,565.7
2023-03-01T04:03:27.000Z,565.7
2023-03-01T04:04:29.235Z,566.5
2023-03-01T04:05:31.504Z,566.6
2023-03-01T04:06:34.651Z,566.8
2023-03-01T04:07:36.862Z,566.9
2023-03-01T04:08:39.341Z,566.6
2023-03-01T04:09:41.543Z,566.7
2023-03-01T04:10:44.032Z,567.1
2023-03-01T04:11:46.219Z,566.8
2023-03-01T04:12:48.152Z,566.8
2023-03-01T04:13:50.645Z,566.9
2023-03-01T04:14:53.227Z,567.1
2023-03-01T04:15:55.796Z,566.8
2023-03-01T04:16:57.799Z,567.4
2023-03-01T04:18:00.086Z,567.2
2023-03-01T04:19:02.752Z,567.2
2023-03-01T04:20:04.961Z,567
2023-03-01T04:21:07.175Z,567.1
2023-03-01T04:22:09.425Z,567.1
2023-03-01T04:23:12.248Z,567.3
2023-03-01T04:24:14.180Z,567.5
2023-03-01T04:25:16.391Z,567.5
2023-03-01T04:26:18.889Z,567.5
2023-03-01T04:27:21.382Z,567.8
2023-03-01T04:28:23.873Z,567.1
2023-03-01T04:29:26.105Z,566.9
2023-03-01T04:30:28.508Z,567.2
2023-03-01T04:31:31.460Z,566.8
2023-03-01T04:32:34.371Z,567.3
2023-03-01T04:33:36.876Z,567
2023-03-01T04:34:39.354Z,566.5
2023-03-01T04:35:42.325Z,567
2023-03-01T04:36:45.380Z,566.9
2023-03-01T04:37:47.929Z,567.3
2023-03-01T04:38:50.306Z,567.4
2023-03-01T04:39:52.260Z,567.4
2023-03-01T04:40:54.196Z,567
2023-03-01T04:41:56.689Z,567.4
2023-03-01T04:42:58.892Z,567.6
2023-03-01T04:44:01.419Z,567.1
2023-03-01T04:45:03.917Z,567
2023-03-01T04:46:06.956Z,567.8
2023-03-01T04:47:09.509Z,567.4
2023-03-01T04:48:11.509Z,567.4
2023-03-01T04:49:14.047Z,567.9
2023-03-01T04:50:16.286Z,567.4
2023-03-01T04:51:18.697Z,567.5
2023-03-01T04:52:21.177Z,567.6
2023-03-01T04:53:23.656Z,567.8
2023-03-01T04:54:25.891Z,568
2023-03-01T04:55:28.133Z,567.8
2023-03-01T04:56:32.488Z,567.8
2023-03-01T04:57:35.164Z,568.1
2023-03-01T04:58:37.762Z,567.9
2023-03-01T04:59:39.977Z,568.1
2023-03-01T05:00:42.218Z,568.2
2023-03-01T05:01:44.828Z,567.8
2023-03-01T05:02:47.517Z,568
2023-03-01T05:03:50.041Z,568.4
2023-03-01T05:04:52.556Z,568.3
2023-03-01T05:05:54.783Z,568.5
2023-03-01T05:06:57.275Z,568.6
2023-03-01T05:07:59.557Z,568.3
2023-03-01T05:09:02.101Z,569.3
2023-03-01T05:10:04.618Z,569
2023-03-01T05:11:07.112Z,568.3
2023-03-01T05:12:09.615Z,568.7
2023-03-01T05:13:12.097Z,568.5
2023-03-01T05:14:13.794Z,568.7
2023-03-01T05:15:16.008Z,568.2
2023-03-01T05:16:18.598Z,568.7
2023-03-01T05:17:21.290Z,569
2023-03-01T05:18:23.535Z,568.7
2023-03-01T05:19:25.781Z,569.1
2023-03-01T05:20:28.287Z,568.8
2023-03-01T05:21:30.500Z,568.8
2023-03-01T05:22:33.010Z,568.6
2023-03-01T05:23:35.260Z,569
2023-03-01T05:24:37.806Z,568.9
2023-03-01T05:25:40.288Z,569.1
2023-03-01T05:26:44.823Z,569.2
2023-03-01T05:27:47.421Z,569.2
2023-03-01T05:28:49.946Z,569.8
2023-03-01T05:29:52.135Z,569.4
2023-03-01T05:30:54.976Z,569.9
2023-03-01T05:31:57.810Z,569.6
2023-03-01T05:33:00.114Z,569.9
2023-03-01T05:34:02.653Z,570
2023-03-01T05:35:04.898Z,569.6
2023-03-01T05:36:06.823Z,569.5
2023-03-01T05:37:08.755Z,569.5
2023-03-01T05:38:10.978Z,569
2023-03-01T05:39:13.211Z,568.7
2023-03-01T05:40:15.158Z,569
2023-03-01T05:41:17.700Z,569.1
2023-03-01T05:42:20.186Z,569
2023-03-01T05:43:22.398Z,569.4
2023-03-01T05:44:24.621Z,569.1
2023-03-01T05:45:27.139Z,569
2023-03-01T05:46:30.742Z,569.3
2023-03-01T05:47:33.184Z,569.2
2023-03-01T05:48:35.734Z,570
2023-03-01T05:50:43.348Z,569.7
2023-03-01T05:51:45.919Z,570.1
2023-03-01T05:52:48.164Z,569.8
2023-03-01T05:53:50.789Z,569.8
2023-03-01T05:54:53.036Z,569.5
2023-03-01T05:55:55.545Z,569.8
2023-03-01T05:56:58.029Z,569.7
2023-03-01T05:58:00.531Z,569.7
2023-03-01T05:59:03.027Z,569.8
2023-03-01T06:00:04.716Z,569.5
2023-03-01T06:01:06.997Z,569.6
2023-03-01T06:02:08.945Z,569.9
2023-03-01T06:03:11.460Z,569.6
2023-03-01T06:04:14.266Z,569.4
2023-03-01T06:05:16.801Z,569.3
2023-03-01T06:06:19.333Z,568.8
2023-03-01T06:07:21.261Z,569.1
2023-03-01T06:08:23.764Z,569.1
2023-03-01T06:09:26.304Z,569
2023-03-01T06:10:28.511Z,569
2023-03-01T06:11:30.749Z,568.6
2023-03-01T06:12:33.267Z,568.5
2023-03-01T06:13:35.781Z,568.5
2023-03-01T06:14:38.022Z,568.4
2023-03-01T06:15:40.522Z,568.2
2023-03-01T06:16:43.048Z,567.8
2023-03-01T06:17:45.277Z,568.4
2023-03-01T06:18:47.607Z,568
2023-03-01T06:19:50.223Z,568.4
2023-03-01T06:20:52.484Z,568.3
2023-03-01T06:21:54.479Z,568.3
2023-03-01T06:22:57.024Z,568.4
2023-03-01T06:23:59.015Z,568.2
2023-03-01T06:25:01.536Z,568.4
2023-03-01T06:26:03.761Z,568.8
2023-03-01T06:27:06.299Z,568.5
2023-03-01T06:28:08.824Z,568.3
2023-03-01T06:29:11.042Z,568.7
2023-03-01T06:30:13.626Z,568
2023-03-01T06:31:16.255Z,568.3
2023-03-01T06:32:18.871Z,568.5
2023-03-01T06:33:21.129Z,568.3
2023-03-01T06:34:23.420Z,568
2023-03-01T06:35:26.232Z,568.1
2023-03-01T06:36:28.573Z,568.1
2023-03-01T06:37:31.343Z,568.2
2023-03-01T06:38:33.536Z,568.3
2023-03-01T06:39:35.755Z,568.3
2023-03-01T06:40:38.346Z,568.3
2023-03-01T06:41:40.821Z,568
2023-03-01T06:42:43.362Z,567.8
2023-03-01T06:43:45.847Z,567.9
2023-03-01T06:44:48.109Z,567.4
2023-03-01T06:45:50.358Z,567.3
2023-03-01T06:46:52.966Z,567.9
2023-03-01T06:47:55.493Z,567.6
2023-03-01T06:48:57.726Z,567.5
2023-03-01T06:49:59.990Z,568.1
2023-03-01T06:51:02.566Z,567.8
2023-03-01T06:52:05.109Z,567.9
2023-03-01T06:53:07.623Z,568.1
2023-03-01T06:54:10.125Z,568.4
2023-03-01T06:55:12.106Z,568.2
2023-03-01T06:56:14.618Z,568.4
2023-03-01T06:57:17.106Z,568.3
2023-03-01T06:58:18.766Z,568.1
2023-03-01T06:59:21.345Z,568.3
2023-03-01T07:00:23.579Z,568.4
2023-03-01T07:01:26.384Z,568.3
2023-03-01T07:02:28.991Z,568.1
2023-03-01T07:04:32.857Z,568.3
2023-03-01T07:05:34.807Z,568
2023-03-01T07:06:37.423Z,567.9
2023-03-01T07:07:39.964Z,567.3
2023-03-01T07:08:42.192Z,567.5
2023-03-01T07:09:44.483Z,567.7
2023-03-01T07:10:46.717Z,567.4
2023-03-01T07:11:49.201Z,567.3
2023-03-01T07:12:51.744Z,567.7
2023-03-01T07:13:54.247Z,567.8
2023-03-01T07:14:56.487Z,567.6
2023-03-01T07:15:59.195Z,567.7
2023-03-01T07:17:01.425Z,567.5
2023-03-01T07:18:03.673Z,567.9
2023-03-01T07:19:05.591Z,568.1
2023-03-01T07:20:07.829Z,568.4
2023-03-01T07:21:10.083Z,568.5
2023-03-01T07:22:12.647Z,568.4
2023-03-01T07:23:14.619Z,568.6
2023-03-01T07:24:17.175Z,568.8
2023-03-01T07:25:19.727Z,568.3
2023-03-01T07:26:23.345Z,568.9
2023-03-01T07:27:26.328Z,569
2023-03-01T07:28:28.267Z,569
2023-03-01T07:29:30.517Z,568.8
2023-03-01T07:30:32.779Z,568.5
2023-03-01T07:31:35.276Z,568.7
2023-03-01T07:32:38.141Z,569.2
2023-03-01T07:33:40.717Z,568.7
2023-03-01T07:34:42.982Z,569.3
2023-03-01T07:35:45.456Z,568.6
2023-03-01T07:36:47.846Z,569
2023-03-01T07:37:50.463Z,569.1
2023-03-01T07:38:53.037Z,569.4
2023-03-01T07:39:55.396Z,569.2
2023-03-01T07:40:57.878Z,569.5
2023-03-01T07:41:59.832Z,569.4
2023-03-01T07:43:02.038Z,569.3
2023-03-01T07:44:04.537Z,570
2023-03-01T07:45:07.056Z,569.7
2023-03-01T07:46:09.836Z,570
2023-03-01T07:47:11.804Z,569.7
2023-03-01T07:48:14.298Z,569.7
2023-03-01T07:49:16.519Z,570
2023-03-01T07:50:19.018Z,570.1
2023-03-01T07:51:23.807Z,570
2023-03-01T07:52:26.316Z,570.4
2023-03-01T07:53:28.926Z,570
2023-03-01T07:54:31.460Z,570
2023-03-01T07:55:33.745Z,570.5
2023-03-01T07:56:36.414Z,570.5
2023-03-01T07:57:38.981Z,570.1
2023-03-01T07:58:41.204Z,570.4
2023-03-01T07:59:43.701Z,570.6
2023-03-01T08:00:46.236Z,570.3
2023-03-01T08:01:48.747Z,570.2
2023-03-01T08:02:51.270Z,570.7
2023-03-01T08:03:53.773Z,570.5
2023-03-01T08:04:56.268Z,570.4
2023-03-01T08:05:58.502Z,570.3
2023-03-01T08:07:00.993Z,570.6
2023-03-01T08:08:03.227Z,570.4
2023-03-01T08:09:05.856Z,570.6
2023-03-01T08:10:08.144Z,570.7
2023-03-01T08:11:10.417Z,570.4
2023-03-01T08:12:12.634Z,570.5
2023-03-01T08:13:15.120Z,570.4
2023-03-01T08:14:17.617Z,570.5
2023-03-01T08:15:20.127Z,570.7
2023-03-01T08:16:22.791Z,570.9
2023-03-01T08:17:25.366Z,570.8
2023-03-01T08:18:27.930Z,570.9
2023-03-01T08:19:30.452Z,570.7
2023-03-01T08:20:32.992Z,570.9
2023-03-01T08:21:35.229Z,570.7
2023-03-01T08:22:37.488Z,571
2023-03-01T08:23:40.271Z,571.3
2023-03-01T08:24:43.019Z,571.1
2023-03-01T08:25:45.520Z,571
2023-03-01T08:26:48.060Z,571
2023-03-01T08:27:50.293Z,571
2023-03-01T08:28:52.832Z,571
2023-03-01T08:29:55.374Z,570.8
2023-03-01T08:30:57.895Z,570.8
2023-03-01T08:32:01.177Z,571.1
2023-03-01T08:33:03.784Z,570.7
2023-03-01T08:34:06.310Z,570.8
2023-03-01T08:35:08.829Z,570.6
2023-03-01T08:36:10.786Z,570.5
2023-03-01T08:37:13.005Z,570.9
2023-03-01T08:38:14.938Z,570.9
2023-03-01T08:39:17.755Z,571.1
2023-03-01T08:40:20.351Z,571
2023-03-01T08:41:22.624Z,571.5
2023-03-01T08:42:24.924Z,571.5
2023-03-01T08:43:28.154Z,571.4
2023-03-01T08:44:30.512Z,571.3
2023-03-01T08:45:32.977Z,571.5
2023-03-01T08:46:36.460Z,571.8
2023-03-01T08:47:39.006Z,572
2023-03-01T08:48:41.550Z,571.8
2023-03-01T08:49:43.800Z,572.2
2023-03-01T08:50:46.303Z,572.5
2023-03-01T08:51:48.849Z,572.6
2023-03-01T08:52:51.356Z,572.8
2023-03-01T08:53:53.875Z,573.7
2023-03-01T08:54:56.094Z,573.3
2023-03-01T08:55:58.469Z,573.3
2023-03-01T08:57:01.082Z,573.3
2023-03-01T08:58:03.631Z,573.3
2023-03-01T08:59:06.167Z,572.8
2023-03-01T09:00:08.679Z,573.2
2023-03-01T09:01:11.221Z,573.2
2023-03-01T09:02:14.132Z,573.3
2023-03-01T09:03:16.435Z,573.5
2023-03-01T09:04:19.017Z,573.3
2023-03-01T09:05:22.476Z,573.1
2023-03-01T09:06:24.906Z,573.6
2023-03-01T09:07:27.486Z,573.3
2023-03-01T09:08:30.464Z,573.4
2023-03-01T09:09:32.763Z,573.2
2023-03-01T09:10:34.782Z,573.9
2023-03-01T09:11:37.430Z,573.8
2023-03-01T09:12:39.748Z,573.7
2023-03-01T09:14:46.997Z,573.1
2023-03-01T09:15:48.817Z,573.4
2023-03-01T09:16:51.582Z,573.7
2023-03-01T09:17:54.156Z,573.8
2023-03-01T09:18:56.780Z,573.7
2023-03-01T09:19:59.315Z,573.9
2023-03-01T09:21:01.579Z,573.8
2023-03-01T09:22:04.097Z,573.5
2023-03-01T09:23:06.663Z,573.6
2023-03-01T09:24:08.966Z,573.1
2023-03-01T09:25:11.486Z,573.3
2023-03-01T09:26:13.902Z,573.7
2023-03-01T09:27:16.530Z,573.3
2023-03-01T09:29:23.773Z,574.2
2023-03-01T09:30:26.040Z,573.9
2023-03-01T09:31:28.561Z,573.7
2023-03-01T09:32:31.467Z,574.1
2023-03-01T09:33:34.005Z,574.3
2023-03-01T09:34:36.220Z,574.2
2023-03-01T09:35:38.862Z,574
2023-03-01T09:36:41.235Z,574.4
2023-03-01T09:37:43.560Z,574.1
2023-03-01T09:38:45.879Z,574
2023-03-01T09:39:48.133Z,574
2023-03-01T09:40:50.378Z,574.3
2023-03-01T09:41:52.627Z,574.3
2023-03-01T09:42:55.264Z,574.3
2023-03-01T09:43:58.355Z,574.2
2023-03-01T09:45:00.633Z,574.2
2023-03-01T09:46:03.358Z,574.8
2023-03-01T09:47:05.200Z,575.1
2023-03-01T09:48:07.697Z,574.8
2023-03-01T09:49:10.185Z,574.9
2023-03-01T09:50:12.704Z,574.8
2023-03-01T09:51:14.681Z,575
2023-03-01T09:52:17.227Z,574.7
2023-03-01T09:53:19.722Z,574.8
2023-03-01T09:54:22.272Z,574.6
2023-03-01T09:55:24.807Z,574.3
2023-03-01T09:56:27.322Z,574.6
2023-03-01T09:57:29.849Z,575
2023-03-01T09:58:32.535Z,574.9
2023-03-01T09:59:35.113Z,574.9
2023-03-01T10:00:37.430Z,575
2023-03-01T10:01:40.083Z,574.6
2023-03-01T10:02:42.066Z,575.1
2023-03-01T10:03:44.517Z,575.2
2023-03-01T10:04:47.547Z,575
2023-03-01T10:05:49.846Z,575
2023-03-01T10:06:52.073Z,574.6
2023-03-01T10:07:54.599Z,575.1
2023-03-01T10:08:56.579Z,575
2023-03-01T10:09:59.088Z,575.3
2023-03-01T10:11:01.054Z,575.8
2023-03-01T10:12:03.263Z,575.6
2023-03-01T10:13:05.490Z,575.4
2023-03-01T10:14:07.862Z,575.3
2023-03-01T10:15:10.146Z,575.8
2023-03-01T10:16:12.847Z,575.6
2023-03-01T10:17:15.280Z,575.7
2023-03-01T10:18:17.836Z,575.8
2023-03-01T10:19:20.101Z,575.9
2023-03-01T10:20:22.364Z,576.2
2023-03-01T10:21:24.603Z,575.8
2023-03-01T10:22:26.605Z,575.8
2023-03-01T10:23:29.177Z,575.7
2023-03-01T10:24:31.716Z,575.7
2023-03-01T10:25:34.226Z,575.8
2023-03-01T10:26:36.778Z,575.6
2023-03-01T10:27:39.367Z,575.9
2023-03-01T10:28:41.708Z,575.7
2023-03-01T10:29:43.945Z,576.3
2023-03-01T10:30:47.027Z,575.9
2023-03-01T10:31:50.131Z,575.8
2023-03-01T10:32:52.485Z,576.2
2023-03-01T10:33:55.057Z,576.1
2023-03-01T10:34:57.310Z,575.8
2023-03-01T10:36:00.121Z,575.5
2023-03-01T10:37:02.497Z,575.5
2023-03-01T10:38:05.009Z,575.3
2023-03-01T10:39:07.136Z,576.2
2023-03-01T10:40:10.015Z,575.7
2023-03-01T10:41:12.150Z,575.6
2023-03-01T10:42:14.473Z,576
2023-03-01T10:43:16.997Z,576.1
2023-03-01T10:44:19.260Z,576.3
2023-03-01T10:45:21.973Z,576.5
2023-03-01T10:46:24.962Z,576.1
2023-03-01T10:47:27.352Z,576.4
2023-03-01T10:48:29.685Z,576.9
2023-03-01T10:49:31.688Z,576.5
2023-03-01T10:50:34.211Z,576.7
2023-03-01T10:51:36.179Z,577
2023-03-01T10:52:38.762Z,577.5
2023-03-01T10:53:41.020Z,577.1
2023-03-01T10:54:43.568Z,577.5
2023-03-01T10:55:45.789Z,577.8
2023-03-01T10:56:48.060Z,578.2
2023-03-01T10:57:50.694Z,578
2023-03-01T10:58:52.644Z,578.1
2023-03-01T10:59:55.197Z,578.5
2023-03-01T11:00:57.853Z,578.4
2023-03-01T11:02:00.784Z,578.5
2023-03-01T11:03:03.971Z,578.8
2023-03-01T11:04:06.910Z,579
2023-03-01T11:05:09.568Z,579.3
2023-03-01T11:06:12.100Z,579.4
2023-03-01T11:07:14.624Z,579.2
2023-03-01T11:08:17.114Z,579.9
2023-03-01T11:09:19.665Z,580
2023-03-01T11:10:22.195Z,580.3
2023-03-01T11:11:24.793Z,581
2023-03-01T11:12:27.051Z,580.8
2023-03-01T11:13:29.533Z,581.2
2023-03-01T11:14:32.133Z,581.4
2023-03-01T11:15:34.742Z,581.3
2023-03-01T11:16:37.081Z,581.8
2023-03-01T11:20:54.580Z,582.3
2023-03-01T11:21:57.070Z,582.6
2023-03-01T11:22:59.619Z,582.3
2023-03-01T11:24:01.914Z,583.3
2023-03-01T11:27:17.503Z,583.5
2023-03-01T11:28:20.062Z,583.4
2023-03-01T11:29:22.600Z,583.3
2023-03-01T11:30:25.142Z,583.5
2023-03-01T11:31:27.862Z,583.8
2023-03-01T11:32:31.463Z,583.8
2023-03-01T11:33:34.074Z,584.1
2023-03-01T11:34:36.562Z,584
2023-03-01T11:35:38.549Z,583.9
2023-03-01T11:36:41.198Z,584.5
2023-03-01T11:37:43.553Z,584.4
2023-03-01T11:38:46.141Z,584.6
2023-03-01T11:39:48.426Z,584.5
2023-03-01T11:40:50.748Z,585.2
2023-03-01T11:41:52.973Z,585.2
2023-03-01T11:42:55.428Z,585.5
2023-03-01T11:43:57.635Z,585.5
2023-03-01T11:44:59.646Z,585.5
2023-03-01T11:46:02.147Z,585.6
2023-03-01T11:47:05.203Z,585.7
2023-03-01T11:48:08.037Z,585.9
2023-03-01T11:49:10.308Z,585.9
2023-03-01T11:50:12.570Z,586.2
2023-03-01T11:51:17.707Z,586.7
2023-03-01T11:52:20.265Z,586.8
2023-03-01T11:53:22.892Z,586.8
2023-03-01T11:54:25.546Z,586.7
2023-03-01T11:55:28.092Z,587
2023-03-01T11:56:30.701Z,586.8
2023-03-01T11:58:38.216Z,586.6
2023-03-01T11:59:40.731Z,587.2
2023-03-01T12:00:42.695Z,586.8
2023-03-01T12:01:45.255Z,587.2
2023-03-01T12:02:47.302Z,586.7
2023-03-01T12:03:49.914Z,587.1
2023-03-01T12:04:52.645Z,586.9
2023-03-01T12:06:09.556Z,587.1
2023-03-01T12:07:12.383Z,586.8
2023-03-01T12:08:14.351Z,587.4
2023-03-01T12:09:16.689Z,587.6
2023-03-01T12:10:19.252Z,588.4
2023-03-01T12:11:21.491Z,588.2
2023-03-01T12:12:23.724Z,588.3
2023-03-01T12:13:25.664Z,588.6
2023-03-01T12:14:28.202Z,588.5
2023-03-01T12:15:30.165Z,588.4
2023-03-01T12:17:37.882Z,588.8
2023-03-01T12:18:40.409Z,588.9
2023-03-01T12:19:43.060Z,588.9
2023-03-01T12:20:45.623Z,589.3
2023-03-01T12:21:47.597Z,589.5
2023-03-01T12:22:50.099Z,589.9
2023-03-01T12:23:52.365Z,589.5
2023-03-01T12:24:54.912Z,589.5
2023-03-01T12:25:57.457Z,589.8
2023-03-01T12:26:59.961Z,589.5
2023-03-01T12:28:02.216Z,589
2023-03-01T12:29:04.770Z,589.5
2023-03-01T12:30:07.328Z,589.8
2023-03-01T12:31:09.614Z,589.6
2023-03-01T12:32:13.149Z,590.1
2023-03-01T12:33:15.489Z,590.3
2023-03-01T12:34:17.741Z,590.3
2023-03-01T12:35:20.556Z,590
2023-03-01T12:36:23.601Z,590.2
2023-03-01T12:37:26.106Z,590.5
2023-03-01T12:38:28.381Z,590.8
2023-03-01T12:39:30.939Z,590.6
2023-03-01T12:40:33.480Z,590.6
2023-03-01T12:41:35.988Z,590.7
2023-03-01T12:42:37.926Z,591.1
2023-03-01T12:43:40.191Z,591.1
2023-03-01T12:44:45.566Z,591.5
2023-03-01T12:45:48.323Z,591.8
2023-03-01T12:46:50.536Z,591.4
2023-03-01T12:47:53.054Z,591.7
2023-03-01T12:48:55.555Z,591.3
2023-03-01T12:49:58.075Z,591.2
2023-03-01T12:51:00.859Z,591.7
2023-03-01T12:52:03.384Z,591.5
2023-03-01T12:53:05.884Z,591.4
2023-03-01T12:54:08.416Z,591.1
2023-03-01T12:55:10.807Z,590.7
2023-03-01T12:56:13.309Z,590.9
2023-03-01T12:57:15.540Z,590.9
2023-03-01T12:58:17.786Z,591
2023-03-01T12:59:20.052Z,590.7
2023-03-01T13:00:22.323Z,591.2
2023-03-01T13:01:25.302Z,591.6
2023-03-01T13:02:28.264Z,591.8
2023-03-01T13:03:30.502Z,591.2
2023-03-01T13:04:35.905Z,591.3
2023-03-01T13:05:38.437Z,591.9
2023-03-01T13:07:46.019Z,591.9
2023-03-01T13:08:48.589Z,592
2023-03-01T13:09:50.906Z,591
2023-03-01T13:10:53.518Z,592.3
2023-03-01T13:11:56.113Z,592.4
2023-03-01T13:12:58.397Z,592.6
2023-03-01T13:14:00.666Z,592.7
2023-03-01T13:15:03.250Z,592.3
2023-03-01T13:16:05.205Z,592.2
2023-03-01T13:17:07.912Z,592.1
2023-03-01T13:18:10.865Z,591.9
2023-03-01T13:19:13.284Z,592.3
2023-03-01T13:20:15.799Z,592.6
2023-03-01T13:21:18.309Z,592.7
2023-03-01T13:22:20.807Z,592.4
2023-03-01T13:23:23.585Z,592.1
2023-03-01T13:24:26.115Z,591.9
2023-03-01T13:26:34.689Z,591.5
2023-03-01T13:27:37.242Z,591.4
2023-03-01T13:28:39.811Z,591.5
2023-03-01T13:29:42.366Z,592
2023-03-01T13:30:44.907Z,591.7
2023-03-01T13:31:47.782Z,591.5
2023-03-01T13:32:51.284Z,591.8
2023-03-01T13:33:53.688Z,592
2023-03-01T13:34:56.129Z,591.8
2023-03-01T13:35:59.164Z,592.3
2023-03-01T13:37:01.174Z,592.2
2023-03-01T13:38:03.699Z,591.9
2023-03-01T13:39:06.419Z,592
2023-03-01T13:40:08.433Z,592.8
2023-03-01T13:41:10.648Z,592.5
2023-03-01T13:42:13.213Z,592.5
2023-03-01T13:43:15.478Z,592.9
2023-03-01T13:44:17.738Z,593.4
2023-03-01T13:45:20.422Z,593.5
2023-03-01T13:46:38.460Z,593.8
2023-03-01T13:47:41.132Z,593.8
2023-03-01T13:48:43.710Z,593
2023-03-01T13:50:50.921Z,593.2
2023-03-01T13:51:52.851Z,593.1
2023-03-01T13:52:55.118Z,593.4
2023-03-01T13:53:57.742Z,593.3
2023-03-01T13:55:00.424Z,593.1
2023-03-01T13:56:02.738Z,593.6
2023-03-01T13:57:05.309Z,593.8